Metolius, Oregon
Current Conditions -  °F | °C
As of 12:15 AM on Sunday 26 Oct 2014 (Local Time) from KS39 Reporting Station
Broken Clouds Broken Clouds  
Wind Chill: 42°   Ceiling: 5500
Heat Index: 45°   Visibility: 10mi
Dew Point: 36°   Wind: 5mph
Humidity: 71%   Direction: 230°SW
Pressure: 29.95"   Gusts: NA
Location:  44.6442°N, 121.064°W
Report Text: KS39 260715Z AUTO 23004KT 10SM FEW033 SCT044 BKN055 07/02 A2995 RMK AO2
Loading
Personal Weather Stations






























Interactive Weather Map
Tropical Storm Tracking
New forecast layout! Learn more

10-Day Weather Forecast

Advertisements
Track Severe Weather on mobile